sensor_id;sensor_type;location;lat;lon;timestamp;P1;durP1;ratioP1;P2;durP2;ratioP2
20320;SDS011;10318;47.674;9.052;2022-10-26T00:01:06;6.80;;;5.43;;
20320;SDS011;10318;47.674;9.052;2022-10-26T00:03:33;9.02;;;5.70;;
20320;SDS011;10318;47.674;9.052;2022-10-26T00:06:08;41.63;;;6.35;;
20320;SDS011;10318;47.674;9.052;2022-10-26T00:08:35;12.02;;;4.88;;
20320;SDS011;10318;47.674;9.052;2022-10-26T00:11:01;11.35;;;4.78;;
20320;SDS011;10318;47.674;9.052;2022-10-26T00:13:28;18.13;;;4.75;;
20320;SDS011;10318;47.674;9.052;2022-10-26T00:15:55;20.65;;;5.25;;
20320;SDS011;10318;47.674;9.052;2022-10-26T00:18:22;14.55;;;5.05;;
20320;SDS011;10318;47.674;9.052;2022-10-26T00:20:49;13.65;;;5.25;;
20320;SDS011;10318;47.674;9.052;2022-10-26T00:23:15;11.80;;;5.32;;
20320;SDS011;10318;47.674;9.052;2022-10-26T00:25:43;9.73;;;4.60;;
20320;SDS011;10318;47.674;9.052;2022-10-26T00:28:09;12.80;;;4.50;;
20320;SDS011;10318;47.674;9.052;2022-10-26T00:30:39;9.80;;;4.65;;
20320;SDS011;10318;47.674;9.052;2022-10-26T00:33:08;9.45;;;4.70;;
20320;SDS011;10318;47.674;9.052;2022-10-26T00:35:35;8.98;;;5.15;;
20320;SDS011;10318;47.674;9.052;2022-10-26T00:38:11;8.40;;;5.10;;
20320;SDS011;10318;47.674;9.052;2022-10-26T00:40:37;9.75;;;4.70;;
20320;SDS011;10318;47.674;9.052;2022-10-26T00:43:05;12.45;;;5.95;;
20320;SDS011;10318;47.674;9.052;2022-10-26T00:45:35;10.73;;;5.50;;
20320;SDS011;10318;47.674;9.052;2022-10-26T00:48:02;12.63;;;7.00;;
20320;SDS011;10318;47.674;9.052;2022-10-26T00:50:34;11.45;;;6.18;;
20320;SDS011;10318;47.674;9.052;2022-10-26T00:53:02;10.27;;;5.70;;
20320;SDS011;10318;47.674;9.052;2022-10-26T00:55:34;9.20;;;6.22;;
20320;SDS011;10318;47.674;9.052;2022-10-26T00:58:03;9.20;;;5.82;;
20320;SDS011;10318;47.674;9.052;2022-10-26T01:00:31;10.70;;;6.82;;
20320;SDS011;10318;47.674;9.052;2022-10-26T01:02:59;13.65;;;7.97;;
20320;SDS011;10318;47.674;9.052;2022-10-26T01:05:26;13.38;;;7.40;;
20320;SDS011;10318;47.674;9.052;2022-10-26T01:07:53;11.00;;;6.70;;
20320;SDS011;10318;47.674;9.052;2022-10-26T01:10:20;10.20;;;6.97;;
20320;SDS011;10318;47.674;9.052;2022-10-26T01:12:46;11.50;;;6.95;;
20320;SDS011;10318;47.674;9.052;2022-10-26T01:15:13;17.98;;;7.90;;
20320;SDS011;10318;47.674;9.052;2022-10-26T01:28:06;15.25;;;8.02;;
20320;SDS011;10318;47.674;9.052;2022-10-26T01:30:39;13.50;;;6.95;;
20320;SDS011;10318;47.674;9.052;2022-10-26T01:39:02;11.65;;;7.03;;
20320;SDS011;10318;47.674;9.052;2022-10-26T01:41:37;12.48;;;6.30;;
20320;SDS011;10318;47.674;9.052;2022-10-26T01:46:35;10.23;;;6.18;;
20320;SDS011;10318;47.674;9.052;2022-10-26T01:49:05;9.60;;;5.65;;
20320;SDS011;10318;47.674;9.052;2022-10-26T01:51:33;10.70;;;5.35;;
20320;SDS011;10318;47.674;9.052;2022-10-26T01:54:00;11.98;;;4.20;;
20320;SDS011;10318;47.674;9.052;2022-10-26T01:56:27;12.00;;;4.68;;
20320;SDS011;10318;47.674;9.052;2022-10-26T01:58:59;9.80;;;4.30;;
20320;SDS011;10318;47.674;9.052;2022-10-26T02:01:32;8.05;;;4.22;;
20320;SDS011;10318;47.674;9.052;2022-10-26T02:04:09;10.85;;;4.20;;
20320;SDS011;10318;47.674;9.052;2022-10-26T02:06:47;14.73;;;3.45;;
20320;SDS011;10318;47.674;9.052;2022-10-26T02:09:37;6.97;;;3.35;;
20320;SDS011;10318;47.674;9.052;2022-10-26T02:12:10;9.35;;;4.20;;
20320;SDS011;10318;47.674;9.052;2022-10-26T02:14:48;6.88;;;4.35;;
20320;SDS011;10318;47.674;9.052;2022-10-26T02:17:32;11.90;;;5.10;;
20320;SDS011;10318;47.674;9.052;2022-10-26T02:20:02;10.35;;;5.32;;
20320;SDS011;10318;47.674;9.052;2022-10-26T02:22:32;9.32;;;6.90;;
20320;SDS011;10318;47.674;9.052;2022-10-26T02:25:03;16.33;;;9.25;;
20320;SDS011;10318;47.674;9.052;2022-10-26T02:27:33;13.35;;;9.82;;
20320;SDS011;10318;47.674;9.052;2022-10-26T02:30:03;12.38;;;8.85;;
20320;SDS011;10318;47.674;9.052;2022-10-26T02:32:31;12.95;;;8.05;;
20320;SDS011;10318;47.674;9.052;2022-10-26T02:34:59;11.65;;;8.40;;
20320;SDS011;10318;47.674;9.052;2022-10-26T02:37:27;14.55;;;8.48;;
20320;SDS011;10318;47.674;9.052;2022-10-26T02:39:54;14.23;;;8.57;;
20320;SDS011;10318;47.674;9.052;2022-10-26T02:42:22;14.05;;;8.05;;
20320;SDS011;10318;47.674;9.052;2022-10-26T02:44:51;13.70;;;8.32;;
20320;SDS011;10318;47.674;9.052;2022-10-26T02:47:19;16.33;;;8.65;;
20320;SDS011;10318;47.674;9.052;2022-10-26T02:49:46;17.83;;;9.30;;
20320;SDS011;10318;47.674;9.052;2022-10-26T02:57:32;14.80;;;9.43;;
20320;SDS011;10318;47.674;9.052;2022-10-26T02:59:59;13.82;;;9.35;;
20320;SDS011;10318;47.674;9.052;2022-10-26T03:02:27;13.25;;;8.63;;
20320;SDS011;10318;47.674;9.052;2022-10-26T03:04:55;13.38;;;8.30;;
20320;SDS011;10318;47.674;9.052;2022-10-26T03:07:30;12.65;;;8.13;;
20320;SDS011;10318;47.674;9.052;2022-10-26T03:09:57;11.85;;;7.90;;
20320;SDS011;10318;47.674;9.052;2022-10-26T03:12:24;11.98;;;8.15;;
20320;SDS011;10318;47.674;9.052;2022-10-26T03:14:50;12.52;;;7.25;;
20320;SDS011;10318;47.674;9.052;2022-10-26T03:17:17;15.55;;;5.95;;
20320;SDS011;10318;47.674;9.052;2022-10-26T03:19:43;9.93;;;6.00;;
20320;SDS011;10318;47.674;9.052;2022-10-26T03:22:10;9.02;;;5.70;;
20320;SDS011;10318;47.674;9.052;2022-10-26T03:24:37;10.00;;;6.68;;
20320;SDS011;10318;47.674;9.052;2022-10-26T03:27:03;15.93;;;6.40;;
20320;SDS011;10318;47.674;9.052;2022-10-26T03:29:30;12.45;;;6.07;;
20320;SDS011;10318;47.674;9.052;2022-10-26T03:31:57;7.40;;;5.53;;
20320;SDS011;10318;47.674;9.052;2022-10-26T03:34:23;9.73;;;6.13;;
20320;SDS011;10318;47.674;9.052;2022-10-26T03:36:50;8.75;;;6.00;;
20320;SDS011;10318;47.674;9.052;2022-10-26T03:39:16;14.40;;;6.97;;
20320;SDS011;10318;47.674;9.052;2022-10-26T03:41:43;13.18;;;7.35;;
20320;SDS011;10318;47.674;9.052;2022-10-26T03:44:10;10.73;;;7.15;;
20320;SDS011;10318;47.674;9.052;2022-10-26T03:46:36;11.90;;;7.55;;
20320;SDS011;10318;47.674;9.052;2022-10-26T03:49:03;13.88;;;7.80;;
20320;SDS011;10318;47.674;9.052;2022-10-26T03:51:30;18.02;;;8.85;;
20320;SDS011;10318;47.674;9.052;2022-10-26T03:53:56;13.57;;;8.48;;
20320;SDS011;10318;47.674;9.052;2022-10-26T03:56:23;14.63;;;7.70;;
20320;SDS011;10318;47.674;9.052;2022-10-26T03:58:50;16.55;;;7.35;;
20320;SDS011;10318;47.674;9.052;2022-10-26T04:01:16;10.18;;;5.97;;
20320;SDS011;10318;47.674;9.052;2022-10-26T04:03:43;5.38;;;2.80;;
20320;SDS011;10318;47.674;9.052;2022-10-26T04:06:10;4.82;;;2.83;;
20320;SDS011;10318;47.674;9.052;2022-10-26T04:08:36;3.65;;;2.70;;
20320;SDS011;10318;47.674;9.052;2022-10-26T04:11:03;4.80;;;2.75;;
20320;SDS011;10318;47.674;9.052;2022-10-26T04:13:30;6.38;;;2.97;;
20320;SDS011;10318;47.674;9.052;2022-10-26T04:15:57;10.07;;;4.95;;
20320;SDS011;10318;47.674;9.052;2022-10-26T04:18:23;11.20;;;5.85;;
20320;SDS011;10318;47.674;9.052;2022-10-26T04:20:50;10.48;;;5.78;;
20320;SDS011;10318;47.674;9.052;2022-10-26T04:23:17;11.23;;;5.88;;
20320;SDS011;10318;47.674;9.052;2022-10-26T04:25:44;9.68;;;5.32;;
20320;SDS011;10318;47.674;9.052;2022-10-26T04:28:11;9.23;;;4.68;;
20320;SDS011;10318;47.674;9.052;2022-10-26T04:30:39;8.32;;;4.63;;
20320;SDS011;10318;47.674;9.052;2022-10-26T04:33:06;5.82;;;4.10;;
20320;SDS011;10318;47.674;9.052;2022-10-26T04:35:32;11.10;;;4.65;;
20320;SDS011;10318;47.674;9.052;2022-10-26T04:38:00;9.07;;;4.18;;
20320;SDS011;10318;47.674;9.052;2022-10-26T04:40:27;7.35;;;4.00;;
20320;SDS011;10318;47.674;9.052;2022-10-26T04:42:54;9.48;;;3.85;;
20320;SDS011;10318;47.674;9.052;2022-10-26T04:45:22;15.00;;;3.50;;
20320;SDS011;10318;47.674;9.052;2022-10-26T04:48:02;8.13;;;4.05;;
20320;SDS011;10318;47.674;9.052;2022-10-26T04:50:29;7.65;;;3.60;;
20320;SDS011;10318;47.674;9.052;2022-10-26T04:52:56;11.30;;;4.32;;
20320;SDS011;10318;47.674;9.052;2022-10-26T04:55:23;6.20;;;3.35;;
20320;SDS011;10318;47.674;9.052;2022-10-26T04:57:49;5.90;;;3.75;;
20320;SDS011;10318;47.674;9.052;2022-10-26T05:00:21;11.52;;;3.58;;
20320;SDS011;10318;47.674;9.052;2022-10-26T05:02:48;9.68;;;4.00;;
20320;SDS011;10318;47.674;9.052;2022-10-26T05:05:14;10.52;;;3.40;;
20320;SDS011;10318;47.674;9.052;2022-10-26T05:07:41;11.07;;;3.67;;
20320;SDS011;10318;47.674;9.052;2022-10-26T05:10:08;17.25;;;4.32;;
20320;SDS011;10318;47.674;9.052;2022-10-26T05:12:35;6.57;;;4.05;;
20320;SDS011;10318;47.674;9.052;2022-10-26T05:15:02;6.70;;;3.60;;
20320;SDS011;10318;47.674;9.052;2022-10-26T05:17:33;7.30;;;4.25;;
20320;SDS011;10318;47.674;9.052;2022-10-26T05:20:00;8.85;;;4.13;;
20320;SDS011;10318;47.674;9.052;2022-10-26T05:22:31;9.02;;;4.32;;
20320;SDS011;10318;47.674;9.052;2022-10-26T05:24:58;13.52;;;4.30;;
20320;SDS011;10318;47.674;9.052;2022-10-26T05:27:25;8.13;;;4.03;;
20320;SDS011;10318;47.674;9.052;2022-10-26T05:29:51;8.43;;;4.13;;
20320;SDS011;10318;47.674;9.052;2022-10-26T05:32:18;9.73;;;4.90;;
20320;SDS011;10318;47.674;9.052;2022-10-26T05:34:45;11.50;;;5.22;;
20320;SDS011;10318;47.674;9.052;2022-10-26T05:37:14;8.15;;;4.75;;
20320;SDS011;10318;47.674;9.052;2022-10-26T05:39:40;9.13;;;4.93;;
20320;SDS011;10318;47.674;9.052;2022-10-26T05:42:08;12.02;;;4.90;;
20320;SDS011;10318;47.674;9.052;2022-10-26T05:44:35;9.13;;;4.47;;
20320;SDS011;10318;47.674;9.052;2022-10-26T05:47:01;12.30;;;5.90;;
20320;SDS011;10318;47.674;9.052;2022-10-26T05:49:28;11.13;;;5.32;;
20320;SDS011;10318;47.674;9.052;2022-10-26T05:51:55;12.07;;;5.20;;
20320;SDS011;10318;47.674;9.052;2022-10-26T05:54:23;11.73;;;4.80;;
20320;SDS011;10318;47.674;9.052;2022-10-26T05:56:50;10.48;;;5.05;;
20320;SDS011;10318;47.674;9.052;2022-10-26T05:59:17;9.40;;;4.20;;
20320;SDS011;10318;47.674;9.052;2022-10-26T06:06:46;7.65;;;4.25;;
20320;SDS011;10318;47.674;9.052;2022-10-26T06:09:17;8.77;;;4.55;;
20320;SDS011;10318;47.674;9.052;2022-10-26T06:11:43;9.30;;;4.78;;
20320;SDS011;10318;47.674;9.052;2022-10-26T06:14:10;7.97;;;4.60;;
20320;SDS011;10318;47.674;9.052;2022-10-26T06:19:29;8.65;;;4.95;;
20320;SDS011;10318;47.674;9.052;2022-10-26T06:24:33;8.95;;;4.60;;
20320;SDS011;10318;47.674;9.052;2022-10-26T06:29:40;9.18;;;4.38;;
20320;SDS011;10318;47.674;9.052;2022-10-26T06:32:08;9.85;;;4.47;;
20320;SDS011;10318;47.674;9.052;2022-10-26T06:34:36;7.95;;;4.30;;
20320;SDS011;10318;47.674;9.052;2022-10-26T06:37:05;10.93;;;4.40;;
20320;SDS011;10318;47.674;9.052;2022-10-26T06:39:34;20.73;;;9.98;;
20320;SDS011;10318;47.674;9.052;2022-10-26T06:42:02;14.93;;;9.43;;
20320;SDS011;10318;47.674;9.052;2022-10-26T06:44:28;27.67;;;12.52;;
20320;SDS011;10318;47.674;9.052;2022-10-26T06:49:26;10.50;;;5.05;;
20320;SDS011;10318;47.674;9.052;2022-10-26T06:54:22;8.48;;;5.68;;
20320;SDS011;10318;47.674;9.052;2022-10-26T06:56:50;12.52;;;5.88;;
20320;SDS011;10318;47.674;9.052;2022-10-26T06:59:36;9.75;;;5.25;;
20320;SDS011;10318;47.674;9.052;2022-10-26T07:02:04;9.25;;;4.70;;
20320;SDS011;10318;47.674;9.052;2022-10-26T07:04:32;14.65;;;5.03;;
20320;SDS011;10318;47.674;9.052;2022-10-26T07:06:58;13.65;;;5.00;;
20320;SDS011;10318;47.674;9.052;2022-10-26T07:09:25;16.02;;;7.78;;
20320;SDS011;10318;47.674;9.052;2022-10-26T07:11:52;14.20;;;10.20;;
20320;SDS011;10318;47.674;9.052;2022-10-26T07:14:18;11.38;;;5.75;;
20320;SDS011;10318;47.674;9.052;2022-10-26T07:16:45;11.43;;;5.80;;
20320;SDS011;10318;47.674;9.052;2022-10-26T07:19:11;10.88;;;5.28;;
20320;SDS011;10318;47.674;9.052;2022-10-26T07:21:38;11.52;;;5.10;;
20320;SDS011;10318;47.674;9.052;2022-10-26T07:24:05;8.98;;;4.90;;
20320;SDS011;10318;47.674;9.052;2022-10-26T07:26:32;11.65;;;5.18;;
20320;SDS011;10318;47.674;9.052;2022-10-26T07:28:58;9.52;;;4.70;;
20320;SDS011;10318;47.674;9.052;2022-10-26T07:31:25;7.53;;;4.60;;
20320;SDS011;10318;47.674;9.052;2022-10-26T07:33:52;10.88;;;4.68;;
20320;SDS011;10318;47.674;9.052;2022-10-26T07:36:19;12.40;;;5.25;;
20320;SDS011;10318;47.674;9.052;2022-10-26T07:38:46;10.35;;;5.35;;
20320;SDS011;10318;47.674;9.052;2022-10-26T07:41:12;8.00;;;4.30;;
20320;SDS011;10318;47.674;9.052;2022-10-26T07:43:39;13.05;;;5.22;;
20320;SDS011;10318;47.674;9.052;2022-10-26T07:46:06;12.55;;;5.28;;
20320;SDS011;10318;47.674;9.052;2022-10-26T07:48:33;8.05;;;4.70;;
20320;SDS011;10318;47.674;9.052;2022-10-26T07:51:00;14.18;;;5.10;;
20320;SDS011;10318;47.674;9.052;2022-10-26T07:53:28;9.52;;;4.38;;
20320;SDS011;10318;47.674;9.052;2022-10-26T07:55:55;9.52;;;5.18;;
20320;SDS011;10318;47.674;9.052;2022-10-26T07:58:22;9.98;;;5.00;;
20320;SDS011;10318;47.674;9.052;2022-10-26T08:00:51;18.00;;;5.97;;
20320;SDS011;10318;47.674;9.052;2022-10-26T08:03:18;15.02;;;6.18;;
20320;SDS011;10318;47.674;9.052;2022-10-26T08:05:45;10.45;;;5.95;;
20320;SDS011;10318;47.674;9.052;2022-10-26T08:08:13;9.73;;;5.32;;
20320;SDS011;10318;47.674;9.052;2022-10-26T08:10:43;9.88;;;5.50;;
20320;SDS011;10318;47.674;9.052;2022-10-26T08:13:10;8.90;;;5.63;;
20320;SDS011;10318;47.674;9.052;2022-10-26T08:15:37;17.15;;;6.25;;
20320;SDS011;10318;47.674;9.052;2022-10-26T08:18:04;14.38;;;6.20;;
20320;SDS011;10318;47.674;9.052;2022-10-26T08:20:30;9.32;;;6.00;;
20320;SDS011;10318;47.674;9.052;2022-10-26T08:22:57;11.45;;;6.88;;
20320;SDS011;10318;47.674;9.052;2022-10-26T08:25:24;17.42;;;7.10;;
20320;SDS011;10318;47.674;9.052;2022-10-26T08:27:51;14.00;;;6.80;;
20320;SDS011;10318;47.674;9.052;2022-10-26T08:30:17;11.63;;;6.30;;
20320;SDS011;10318;47.674;9.052;2022-10-26T08:32:44;14.43;;;6.68;;
20320;SDS011;10318;47.674;9.052;2022-10-26T08:35:14;10.68;;;6.70;;
20320;SDS011;10318;47.674;9.052;2022-10-26T08:37:40;9.73;;;6.50;;
20320;SDS011;10318;47.674;9.052;2022-10-26T08:40:08;12.95;;;7.10;;
20320;SDS011;10318;47.674;9.052;2022-10-26T08:42:37;10.82;;;6.55;;
20320;SDS011;10318;47.674;9.052;2022-10-26T08:45:17;10.60;;;6.60;;
20320;SDS011;10318;47.674;9.052;2022-10-26T08:47:57;13.43;;;6.13;;
20320;SDS011;10318;47.674;9.052;2022-10-26T08:52:55;11.48;;;6.40;;
20320;SDS011;10318;47.674;9.052;2022-10-26T08:55:29;10.98;;;5.95;;
20320;SDS011;10318;47.674;9.052;2022-10-26T08:57:58;15.25;;;6.35;;
20320;SDS011;10318;47.674;9.052;2022-10-26T09:00:26;13.57;;;6.30;;
20320;SDS011;10318;47.674;9.052;2022-10-26T09:02:54;13.98;;;6.05;;
20320;SDS011;10318;47.674;9.052;2022-10-26T09:05:22;15.73;;;5.95;;
20320;SDS011;10318;47.674;9.052;2022-10-26T09:10:40;11.52;;;5.88;;
20320;SDS011;10318;47.674;9.052;2022-10-26T09:28:56;10.00;;;5.38;;
20320;SDS011;10318;47.674;9.052;2022-10-26T09:31:24;10.35;;;6.05;;
20320;SDS011;10318;47.674;9.052;2022-10-26T09:33:51;13.98;;;5.93;;
20320;SDS011;10318;47.674;9.052;2022-10-26T09:36:19;11.38;;;6.20;;
20320;SDS011;10318;47.674;9.052;2022-10-26T09:38:57;12.60;;;5.78;;
20320;SDS011;10318;47.674;9.052;2022-10-26T09:44:04;11.48;;;5.93;;
20320;SDS011;10318;47.674;9.052;2022-10-26T09:49:17;12.82;;;6.00;;
20320;SDS011;10318;47.674;9.052;2022-10-26T09:51:46;13.82;;;6.45;;
20320;SDS011;10318;47.674;9.052;2022-10-26T09:54:17;11.70;;;5.97;;
20320;SDS011;10318;47.674;9.052;2022-10-26T09:56:45;15.38;;;5.45;;
20320;SDS011;10318;47.674;9.052;2022-10-26T09:59:12;12.75;;;5.38;;
20320;SDS011;10318;47.674;9.052;2022-10-26T10:01:43;11.48;;;4.90;;
20320;SDS011;10318;47.674;9.052;2022-10-26T10:06:39;7.82;;;5.15;;
20320;SDS011;10318;47.674;9.052;2022-10-26T10:09:09;10.80;;;5.22;;
20320;SDS011;10318;47.674;9.052;2022-10-26T10:14:05;11.73;;;5.60;;
20320;SDS011;10318;47.674;9.052;2022-10-26T10:16:32;9.65;;;5.28;;
20320;SDS011;10318;47.674;9.052;2022-10-26T10:18:59;7.35;;;4.78;;
20320;SDS011;10318;47.674;9.052;2022-10-26T10:23:59;9.85;;;4.95;;
20320;SDS011;10318;47.674;9.052;2022-10-26T10:26:26;10.27;;;4.00;;
20320;SDS011;10318;47.674;9.052;2022-10-26T10:28:57;9.05;;;4.32;;
20320;SDS011;10318;47.674;9.052;2022-10-26T10:31:30;8.23;;;4.00;;
20320;SDS011;10318;47.674;9.052;2022-10-26T10:33:57;10.48;;;4.72;;
20320;SDS011;10318;47.674;9.052;2022-10-26T10:36:24;7.40;;;4.20;;
20320;SDS011;10318;47.674;9.052;2022-10-26T10:38:52;10.38;;;4.63;;
20320;SDS011;10318;47.674;9.052;2022-10-26T10:43:51;8.30;;;3.92;;
20320;SDS011;10318;47.674;9.052;2022-10-26T10:46:20;9.00;;;3.28;;
20320;SDS011;10318;47.674;9.052;2022-10-26T10:48:50;11.77;;;3.42;;
20320;SDS011;10318;47.674;9.052;2022-10-26T10:51:18;8.50;;;3.80;;
20320;SDS011;10318;47.674;9.052;2022-10-26T11:07:04;10.90;;;3.28;;
20320;SDS011;10318;47.674;9.052;2022-10-26T11:09:32;10.93;;;3.10;;
20320;SDS011;10318;47.674;9.052;2022-10-26T11:12:01;8.65;;;2.88;;
20320;SDS011;10318;47.674;9.052;2022-10-26T11:14:36;10.80;;;2.92;;
20320;SDS011;10318;47.674;9.052;2022-10-26T11:19:43;8.52;;;3.30;;
20320;SDS011;10318;47.674;9.052;2022-10-26T11:22:16;7.85;;;2.88;;
20320;SDS011;10318;47.674;9.052;2022-10-26T11:24:55;6.00;;;2.63;;
20320;SDS011;10318;47.674;9.052;2022-10-26T11:27:24;10.52;;;2.88;;
20320;SDS011;10318;47.674;9.052;2022-10-26T11:30:04;4.57;;;1.98;;
20320;SDS011;10318;47.674;9.052;2022-10-26T11:32:46;9.57;;;2.70;;
20320;SDS011;10318;47.674;9.052;2022-10-26T11:41:17;10.40;;;2.42;;
20320;SDS011;10318;47.674;9.052;2022-10-26T11:43:48;8.85;;;2.25;;
20320;SDS011;10318;47.674;9.052;2022-10-26T11:46:23;9.85;;;2.53;;
20320;SDS011;10318;47.674;9.052;2022-10-26T11:49:16;6.88;;;2.53;;
20320;SDS011;10318;47.674;9.052;2022-10-26T11:51:42;9.43;;;2.90;;
20320;SDS011;10318;47.674;9.052;2022-10-26T11:54:11;9.02;;;2.42;;
20320;SDS011;10318;47.674;9.052;2022-10-26T11:56:41;9.40;;;2.40;;
20320;SDS011;10318;47.674;9.052;2022-10-26T11:59:13;8.82;;;2.38;;
20320;SDS011;10318;47.674;9.052;2022-10-26T12:01:40;8.80;;;2.38;;
20320;SDS011;10318;47.674;9.052;2022-10-26T12:04:07;8.00;;;2.50;;
20320;SDS011;10318;47.674;9.052;2022-10-26T12:06:35;6.55;;;2.70;;
20320;SDS011;10318;47.674;9.052;2022-10-26T12:09:04;10.95;;;2.60;;
20320;SDS011;10318;47.674;9.052;2022-10-26T12:17:12;6.60;;;2.17;;
20320;SDS011;10318;47.674;9.052;2022-10-26T12:19:48;9.18;;;2.60;;
20320;SDS011;10318;47.674;9.052;2022-10-26T12:22:16;7.82;;;2.42;;
20320;SDS011;10318;47.674;9.052;2022-10-26T12:24:44;6.25;;;2.35;;
20320;SDS011;10318;47.674;9.052;2022-10-26T12:35:29;13.65;;;2.50;;
20320;SDS011;10318;47.674;9.052;2022-10-26T12:37:56;12.73;;;3.00;;
20320;SDS011;10318;47.674;9.052;2022-10-26T12:45:40;17.45;;;3.28;;
20320;SDS011;10318;47.674;9.052;2022-10-26T12:48:53;9.40;;;2.53;;
20320;SDS011;10318;47.674;9.052;2022-10-26T12:53:48;17.00;;;2.63;;
20320;SDS011;10318;47.674;9.052;2022-10-26T12:56:15;10.48;;;2.75;;
20320;SDS011;10318;47.674;9.052;2022-10-26T12:58:50;8.27;;;2.33;;
20320;SDS011;10318;47.674;9.052;2022-10-26T13:04:03;10.35;;;2.63;;
20320;SDS011;10318;47.674;9.052;2022-10-26T13:09:19;8.18;;;2.58;;
20320;SDS011;10318;47.674;9.052;2022-10-26T13:11:47;14.93;;;3.25;;
20320;SDS011;10318;47.674;9.052;2022-10-26T13:14:17;11.70;;;2.70;;
20320;SDS011;10318;47.674;9.052;2022-10-26T13:16:44;9.00;;;2.67;;
20320;SDS011;10318;47.674;9.052;2022-10-26T13:19:23;12.52;;;3.47;;
20320;SDS011;10318;47.674;9.052;2022-10-26T13:21:51;13.25;;;3.40;;
20320;SDS011;10318;47.674;9.052;2022-10-26T13:24:18;14.73;;;3.60;;
20320;SDS011;10318;47.674;9.052;2022-10-26T13:32:30;9.50;;;3.20;;
20320;SDS011;10318;47.674;9.052;2022-10-26T13:34:58;8.35;;;2.70;;
20320;SDS011;10318;47.674;9.052;2022-10-26T13:37:26;8.65;;;2.83;;
20320;SDS011;10318;47.674;9.052;2022-10-26T13:39:54;14.20;;;3.15;;
20320;SDS011;10318;47.674;9.052;2022-10-26T13:42:23;15.90;;;3.20;;
20320;SDS011;10318;47.674;9.052;2022-10-26T13:44:58;14.88;;;3.42;;
20320;SDS011;10318;47.674;9.052;2022-10-26T13:47:27;13.15;;;3.10;;
20320;SDS011;10318;47.674;9.052;2022-10-26T13:50:04;11.23;;;2.95;;
20320;SDS011;10318;47.674;9.052;2022-10-26T13:52:37;12.77;;;3.10;;
20320;SDS011;10318;47.674;9.052;2022-10-26T13:55:14;13.73;;;3.45;;
20320;SDS011;10318;47.674;9.052;2022-10-26T13:57:43;16.20;;;3.35;;
20320;SDS011;10318;47.674;9.052;2022-10-26T14:00:14;12.75;;;3.17;;
20320;SDS011;10318;47.674;9.052;2022-10-26T14:02:42;10.70;;;2.80;;
20320;SDS011;10318;47.674;9.052;2022-10-26T14:05:10;11.55;;;2.88;;
20320;SDS011;10318;47.674;9.052;2022-10-26T14:07:51;13.27;;;3.20;;
20320;SDS011;10318;47.674;9.052;2022-10-26T14:10:29;12.45;;;3.28;;
20320;SDS011;10318;47.674;9.052;2022-10-26T14:12:57;11.27;;;3.03;;
20320;SDS011;10318;47.674;9.052;2022-10-26T14:15:25;11.20;;;2.65;;
20320;SDS011;10318;47.674;9.052;2022-10-26T14:17:53;10.95;;;3.05;;
20320;SDS011;10318;47.674;9.052;2022-10-26T14:20:21;11.13;;;3.05;;
20320;SDS011;10318;47.674;9.052;2022-10-26T14:22:49;11.57;;;2.53;;
20320;SDS011;10318;47.674;9.052;2022-10-26T14:25:34;12.52;;;2.88;;
20320;SDS011;10318;47.674;9.052;2022-10-26T14:28:21;9.13;;;3.20;;
20320;SDS011;10318;47.674;9.052;2022-10-26T14:30:47;9.98;;;2.83;;
20320;SDS011;10318;47.674;9.052;2022-10-26T14:33:18;11.45;;;3.03;;
20320;SDS011;10318;47.674;9.052;2022-10-26T14:35:46;18.60;;;3.50;;
20320;SDS011;10318;47.674;9.052;2022-10-26T14:40:43;8.65;;;2.67;;
20320;SDS011;10318;47.674;9.052;2022-10-26T14:43:16;9.15;;;2.42;;
20320;SDS011;10318;47.674;9.052;2022-10-26T14:45:47;15.57;;;3.28;;
20320;SDS011;10318;47.674;9.052;2022-10-26T14:48:18;15.20;;;3.08;;
20320;SDS011;10318;47.674;9.052;2022-10-26T14:50:56;19.05;;;2.88;;
20320;SDS011;10318;47.674;9.052;2022-10-26T14:53:28;19.88;;;3.33;;
20320;SDS011;10318;47.674;9.052;2022-10-26T14:55:55;17.48;;;2.83;;
20320;SDS011;10318;47.674;9.052;2022-10-26T14:58:23;8.70;;;2.92;;
20320;SDS011;10318;47.674;9.052;2022-10-26T15:03:38;15.27;;;2.55;;
20320;SDS011;10318;47.674;9.052;2022-10-26T15:06:21;14.20;;;3.05;;
20320;SDS011;10318;47.674;9.052;2022-10-26T15:08:47;13.27;;;3.45;;
20320;SDS011;10318;47.674;9.052;2022-10-26T15:11:22;11.90;;;3.13;;
20320;SDS011;10318;47.674;9.052;2022-10-26T15:13:49;8.95;;;3.08;;
20320;SDS011;10318;47.674;9.052;2022-10-26T15:16:16;13.32;;;3.05;;
20320;SDS011;10318;47.674;9.052;2022-10-26T15:18:44;8.55;;;2.38;;
20320;SDS011;10318;47.674;9.052;2022-10-26T15:21:31;18.52;;;3.50;;
20320;SDS011;10318;47.674;9.052;2022-10-26T15:23:59;11.55;;;2.55;;
20320;SDS011;10318;47.674;9.052;2022-10-26T15:26:26;9.82;;;2.92;;
20320;SDS011;10318;47.674;9.052;2022-10-26T15:28:53;10.40;;;2.58;;
20320;SDS011;10318;47.674;9.052;2022-10-26T15:36:15;15.10;;;2.72;;
20320;SDS011;10318;47.674;9.052;2022-10-26T15:38:42;7.95;;;2.42;;
20320;SDS011;10318;47.674;9.052;2022-10-26T15:43:49;13.45;;;2.55;;
20320;SDS011;10318;47.674;9.052;2022-10-26T15:46:16;14.00;;;3.33;;
20320;SDS011;10318;47.674;9.052;2022-10-26T15:48:45;12.02;;;2.72;;
20320;SDS011;10318;47.674;9.052;2022-10-26T15:51:18;13.90;;;3.22;;
20320;SDS011;10318;47.674;9.052;2022-10-26T15:53:44;7.18;;;2.55;;
20320;SDS011;10318;47.674;9.052;2022-10-26T15:56:15;12.40;;;2.97;;
20320;SDS011;10318;47.674;9.052;2022-10-26T15:58:42;9.50;;;2.67;;
20320;SDS011;10318;47.674;9.052;2022-10-26T16:01:13;19.00;;;3.30;;
20320;SDS011;10318;47.674;9.052;2022-10-26T16:03:41;11.88;;;2.75;;
20320;SDS011;10318;47.674;9.052;2022-10-26T16:06:11;15.27;;;3.22;;
20320;SDS011;10318;47.674;9.052;2022-10-26T16:08:39;11.05;;;2.83;;
20320;SDS011;10318;47.674;9.052;2022-10-26T16:11:06;8.52;;;2.40;;
20320;SDS011;10318;47.674;9.052;2022-10-26T16:13:32;19.17;;;3.30;;
20320;SDS011;10318;47.674;9.052;2022-10-26T16:15:59;19.80;;;3.13;;
20320;SDS011;10318;47.674;9.052;2022-10-26T16:18:26;14.20;;;3.20;;
20320;SDS011;10318;47.674;9.052;2022-10-26T16:20:53;16.27;;;3.35;;
20320;SDS011;10318;47.674;9.052;2022-10-26T16:23:19;21.45;;;3.65;;
20320;SDS011;10318;47.674;9.052;2022-10-26T16:25:48;15.43;;;3.13;;
20320;SDS011;10318;47.674;9.052;2022-10-26T16:28:15;9.23;;;2.75;;
20320;SDS011;10318;47.674;9.052;2022-10-26T16:30:42;11.50;;;3.40;;
20320;SDS011;10318;47.674;9.052;2022-10-26T16:33:09;11.95;;;3.00;;
20320;SDS011;10318;47.674;9.052;2022-10-26T16:35:35;14.90;;;2.88;;
20320;SDS011;10318;47.674;9.052;2022-10-26T16:38:02;10.43;;;3.05;;
20320;SDS011;10318;47.674;9.052;2022-10-26T16:40:30;18.13;;;3.78;;
20320;SDS011;10318;47.674;9.052;2022-10-26T16:42:57;12.00;;;2.55;;
20320;SDS011;10318;47.674;9.052;2022-10-26T16:45:24;11.35;;;3.25;;
20320;SDS011;10318;47.674;9.052;2022-10-26T16:47:50;12.18;;;2.92;;
20320;SDS011;10318;47.674;9.052;2022-10-26T16:50:17;11.27;;;2.92;;
20320;SDS011;10318;47.674;9.052;2022-10-26T16:52:46;13.07;;;3.25;;
20320;SDS011;10318;47.674;9.052;2022-10-26T16:55:13;11.95;;;3.40;;
20320;SDS011;10318;47.674;9.052;2022-10-26T16:57:40;8.40;;;3.20;;
20320;SDS011;10318;47.674;9.052;2022-10-26T17:00:06;9.80;;;3.33;;
20320;SDS011;10318;47.674;9.052;2022-10-26T17:02:33;13.10;;;3.42;;
20320;SDS011;10318;47.674;9.052;2022-10-26T17:05:00;10.02;;;2.85;;
20320;SDS011;10318;47.674;9.052;2022-10-26T17:07:32;19.42;;;3.28;;
20320;SDS011;10318;47.674;9.052;2022-10-26T17:09:59;17.80;;;2.55;;
20320;SDS011;10318;47.674;9.052;2022-10-26T17:12:28;14.15;;;3.05;;
20320;SDS011;10318;47.674;9.052;2022-10-26T17:14:54;9.90;;;2.85;;